首页
METAR-TAF:

METAR-TAF

机场 :

哈拉雷, 辛巴威

哈拉雷国际机场

纬度: 17-55S, 经度: 031-08E, 海拔: 1479米

当前天气观测

该预报发布于2小时和9分钟前的16:00 UTC
风速4节,风向南转南东
温度 19°C
湿度 46%
气压 1024 hPa
能见度10公里或以上
1500米以下无云,无积雨云

METAR: FVHA 241600Z 16004KT CAVOK 19/07 Q1024 NOSIG

时间: 20:09 (18:09 UTC)

预报

该预报发布于2小时和9分钟前的16:00 UTC
预报有效从24日的 18点(UTC)到 25日的 24点(UTC)
风速8节,风向东南
能见度10公里或以上
1500米以下无云,无积雨云

TAF: FVHA 241600Z 2418/2524 14008KT CAVOK

超过4000个机场的气象观测和天气预报(METAR&TAF报告)。

可查询的气象台以黄色和红色小点在地图上表示。

将鼠标移到小点上方,可查看气象台名称。

然后点击查看天气观测和预报。

如需切换地图:点击带黑十字的绿色按钮放大地图;点击带横线的绿色按钮缩小地图;或者点击绿色箭头查看邻近地区的地图。


METAR-TAF: